createdAt,value
2022-09-09T00:00:37.426Z,6.22
2022-09-09T00:04:05.138Z,6.22
2022-09-09T00:07:39.426Z,5.68
2022-09-09T00:11:07.695Z,5.80
2022-09-09T00:14:39.581Z,6.15
2022-09-09T00:18:10.305Z,5.88
2022-09-09T00:21:37.226Z,6.60
2022-09-09T00:25:11.297Z,6.65
2022-09-09T00:28:38.279Z,6.40
2022-09-09T00:32:06.822Z,7.28
2022-09-09T00:35:33.462Z,7.10
2022-09-09T00:39:00.473Z,6.85
2022-09-09T00:42:26.928Z,7.05
2022-09-09T00:46:12.932Z,8.02
2022-09-09T00:49:48.915Z,8.45
2022-09-09T00:53:30.960Z,8.60
2022-09-09T00:57:05.962Z,9.50
2022-09-09T01:00:30.160Z,8.55
2022-09-09T01:03:55.887Z,10.00
2022-09-09T01:07:19.916Z,9.90
2022-09-09T01:10:55.549Z,9.60
2022-09-09T01:14:32.948Z,9.32
2022-09-09T01:18:02.369Z,10.00
2022-09-09T01:21:34.979Z,10.40
2022-09-09T01:25:22.243Z,10.55
2022-09-09T01:28:54.677Z,11.15
2022-09-09T01:32:47.388Z,11.82
2022-09-09T01:36:15.706Z,11.90
2022-09-09T01:39:46.786Z,13.15
2022-09-09T01:43:11.677Z,12.63
2022-09-09T01:46:34.766Z,12.98
2022-09-09T01:49:57.385Z,12.82
2022-09-09T01:53:23.897Z,13.25
2022-09-09T01:57:03.976Z,13.13
2022-09-09T02:00:26.772Z,13.48
2022-09-09T02:03:58.266Z,12.23
2022-09-09T02:07:35.562Z,12.02
2022-09-09T02:11:03.833Z,11.48
2022-09-09T02:14:38.586Z,12.23
2022-09-09T02:18:03.145Z,11.43
2022-09-09T02:21:29.558Z,10.80
2022-09-09T02:24:54.723Z,11.35
2022-09-09T02:28:22.506Z,12.15
2022-09-09T02:31:46.366Z,11.80
2022-09-09T02:35:16.805Z,11.93
2022-09-09T02:38:57.286Z,11.48
2022-09-09T02:42:23.361Z,12.05
2022-09-09T02:46:01.754Z,12.05
2022-09-09T02:49:30.767Z,12.43
2022-09-09T02:53:04.249Z,12.30
2022-09-09T02:56:32.394Z,12.63
2022-09-09T02:59:54.544Z,13.25
2022-09-09T03:03:17.378Z,12.10
2022-09-09T03:06:39.498Z,13.00
2022-09-09T03:10:11.644Z,12.02
2022-09-09T03:13:34.733Z,12.48
2022-09-09T03:16:57.547Z,12.25
2022-09-09T03:20:19.958Z,11.52
2022-09-09T03:23:41.795Z,12.60
2022-09-09T03:27:03.559Z,11.50
2022-09-09T03:30:28.686Z,11.52
2022-09-09T03:33:51.899Z,11.80
2022-09-09T03:37:15.523Z,11.73
2022-09-09T03:40:37.349Z,12.13
2022-09-09T03:43:59.350Z,12.00
2022-09-09T03:47:24.333Z,12.75
2022-09-09T03:50:52.090Z,13.10
2022-09-09T03:54:13.738Z,12.82
2022-09-09T03:57:36.936Z,12.07
2022-09-09T04:01:02.451Z,12.50
2022-09-09T04:04:25.729Z,11.75
2022-09-09T04:07:47.523Z,12.48
2022-09-09T04:11:09.818Z,12.60
2022-09-09T04:14:33.241Z,11.77
2022-09-09T04:17:55.142Z,12.82
2022-09-09T04:21:18.572Z,11.40
2022-09-09T04:24:42.070Z,11.25
2022-09-09T04:28:06.323Z,11.10
2022-09-09T04:31:28.615Z,10.55
2022-09-09T04:34:51.986Z,11.10
2022-09-09T04:38:15.437Z,10.65
2022-09-09T04:41:38.748Z,10.45
2022-09-09T04:45:01.221Z,10.35
2022-09-09T04:48:23.475Z,11.68
2022-09-09T04:51:45.292Z,11.02
2022-09-09T04:55:10.646Z,11.95
2022-09-09T04:58:33.171Z,10.27
2022-09-09T05:01:56.236Z,11.25
2022-09-09T05:05:19.559Z,10.13
2022-09-09T05:08:44.580Z,10.35
2022-09-09T05:12:08.030Z,10.02
2022-09-09T05:15:31.791Z,10.88
2022-09-09T05:18:53.300Z,10.90
2022-09-09T05:22:21.195Z,10.38
2022-09-09T05:25:43.625Z,10.05
2022-09-09T05:29:07.153Z,9.85
2022-09-09T05:32:28.976Z,9.80
2022-09-09T05:35:58.049Z,9.00
2022-09-09T05:39:19.795Z,9.38
2022-09-09T05:42:41.669Z,9.82
2022-09-09T05:46:07.234Z,9.38
2022-09-09T05:49:29.106Z,10.18
2022-09-09T05:52:50.955Z,8.98
2022-09-09T05:56:15.225Z,8.55
2022-09-09T05:59:38.310Z,9.13
2022-09-09T06:03:02.117Z,8.85
2022-09-09T06:06:25.240Z,8.02
2022-09-09T06:09:47.045Z,8.00
2022-09-09T06:13:08.810Z,8.45
2022-09-09T06:16:33.579Z,8.60
2022-09-09T06:19:57.117Z,7.35
2022-09-09T06:23:19.907Z,7.63
2022-09-09T06:26:42.659Z,7.15
2022-09-09T06:30:08.615Z,7.28
2022-09-09T06:33:35.817Z,7.50
2022-09-09T06:36:59.788Z,6.57
2022-09-09T06:40:27.902Z,5.72
2022-09-09T06:43:50.096Z,6.13
2022-09-09T06:47:12.487Z,5.85
2022-09-09T06:50:35.765Z,6.32
2022-09-09T06:54:00.493Z,5.93
2022-09-09T06:57:38.561Z,6.43
2022-09-09T07:01:06.884Z,6.00
2022-09-09T07:04:29.494Z,6.75
2022-09-09T07:07:52.934Z,6.63
2022-09-09T07:11:17.326Z,6.20
2022-09-09T07:14:39.290Z,6.28
2022-09-09T07:18:04.352Z,6.57
2022-09-09T07:21:28.335Z,5.00
2022-09-09T07:24:49.987Z,5.18
2022-09-09T07:28:13.194Z,4.50
2022-09-09T07:31:37.521Z,4.47
2022-09-09T07:35:03.055Z,4.10
2022-09-09T07:38:25.078Z,3.75
2022-09-09T07:41:50.076Z,3.70
2022-09-09T07:45:16.407Z,3.30
2022-09-09T07:48:38.561Z,3.10
2022-09-09T07:52:00.960Z,3.03
2022-09-09T07:55:26.407Z,2.92
2022-09-09T07:58:49.355Z,2.95
2022-09-09T08:02:13.046Z,3.80
2022-09-09T08:05:35.120Z,3.25
2022-09-09T08:08:57.368Z,3.63
2022-09-09T08:12:19.753Z,3.55
2022-09-09T08:15:42.104Z,2.40
2022-09-09T08:19:06.571Z,2.42
2022-09-09T08:22:28.874Z,3.22
2022-09-09T08:25:51.102Z,3.22
2022-09-09T08:29:14.871Z,2.85
2022-09-09T08:32:36.719Z,2.85
2022-09-09T08:35:59.998Z,2.42
2022-09-09T08:39:23.829Z,2.50
2022-09-09T08:42:50.804Z,2.40
2022-09-09T08:46:22.538Z,2.50
2022-09-09T08:50:05.034Z,2.50
2022-09-09T08:53:32.299Z,2.33
2022-09-09T08:56:54.906Z,2.45
2022-09-09T09:00:16.953Z,2.53
2022-09-09T09:03:47.366Z,2.20
2022-09-09T09:07:22.133Z,2.00
2022-09-09T09:10:50.072Z,2.00
2022-09-09T09:14:24.277Z,2.20
2022-09-09T09:17:47.598Z,2.20
2022-09-09T09:21:15.590Z,2.33
2022-09-09T09:24:47.893Z,2.45
2022-09-09T09:28:19.217Z,1.98
2022-09-09T09:31:48.941Z,2.10
2022-09-09T09:35:14.580Z,2.38
2022-09-09T09:42:23.850Z,2.15
2022-09-09T09:46:13.885Z,2.20
2022-09-09T09:49:31.450Z,2.10
2022-09-09T09:52:58.408Z,1.88
2022-09-09T09:56:29.632Z,2.00
2022-09-09T10:00:02.357Z,1.83
2022-09-09T10:03:30.217Z,1.70
2022-09-09T10:06:54.034Z,1.52
2022-09-09T10:10:21.576Z,1.88
2022-09-09T10:13:51.452Z,1.70
2022-09-09T10:17:28.180Z,1.80
2022-09-09T10:21:01.368Z,1.98
2022-09-09T10:24:47.013Z,1.70
2022-09-09T10:28:35.316Z,1.45
2022-09-09T10:32:08.314Z,1.70
2022-09-09T10:35:34.414Z,1.60
2022-09-09T10:39:01.932Z,1.80
2022-09-09T10:42:33.118Z,1.67
2022-09-09T10:46:04.815Z,1.95
2022-09-09T10:49:41.594Z,1.42
2022-09-09T10:53:15.239Z,1.58
2022-09-09T10:56:40.766Z,1.60
2022-09-09T11:00:06.988Z,1.67
2022-09-09T11:03:32.060Z,1.33
2022-09-09T11:06:57.103Z,1.50
2022-09-09T11:10:26.330Z,1.42
2022-09-09T11:13:56.911Z,1.58
2022-09-09T11:17:22.861Z,1.67
2022-09-09T11:20:46.833Z,1.50
2022-09-09T11:24:16.457Z,1.73
2022-09-09T11:27:46.883Z,1.77
2022-09-09T11:31:29.793Z,1.65
2022-09-09T11:34:58.709Z,1.40
2022-09-09T11:38:28.831Z,1.77
2022-09-09T11:41:50.866Z,1.40
2022-09-09T11:45:22.166Z,1.20
2022-09-09T11:48:46.733Z,1.27
2022-09-09T11:52:22.873Z,1.50
2022-09-09T11:55:45.068Z,1.48
2022-09-09T11:59:09.051Z,1.52
2022-09-09T12:02:32.174Z,1.50
2022-09-09T12:05:57.058Z,1.42
2022-09-09T12:09:27.958Z,1.48
2022-09-09T12:12:49.708Z,1.58
2022-09-09T12:16:34.284Z,1.70
2022-09-09T12:20:08.220Z,1.60
2022-09-09T12:23:40.258Z,1.48
2022-09-09T12:27:09.381Z,1.30
2022-09-09T12:30:36.576Z,1.40
2022-09-09T12:34:12.011Z,1.40
2022-09-09T12:37:37.507Z,1.27
2022-09-09T12:41:01.594Z,1.20
2022-09-09T12:44:23.807Z,1.48
2022-09-09T12:47:49.313Z,1.27
2022-09-09T12:51:21.296Z,1.13
2022-09-09T12:54:48.138Z,1.40
2022-09-09T12:58:17.974Z,1.05
2022-09-09T13:01:39.461Z,1.42
2022-09-09T13:05:10.063Z,1.50
2022-09-09T13:08:32.218Z,1.40
2022-09-09T13:11:59.202Z,1.38
2022-09-09T13:15:27.566Z,1.40
2022-09-09T13:18:50.375Z,1.20
2022-09-09T13:22:17.265Z,1.42
2022-09-09T13:25:43.644Z,1.27
2022-09-09T13:29:22.294Z,0.95
2022-09-09T13:32:45.207Z,1.30
2022-09-09T13:36:09.138Z,1.20
2022-09-09T13:39:31.245Z,1.13
2022-09-09T13:42:57.295Z,1.20
2022-09-09T13:46:31.232Z,1.20
2022-09-09T13:49:54.275Z,1.10
2022-09-09T13:53:16.179Z,1.02
2022-09-09T13:56:38.741Z,1.20
2022-09-09T14:00:07.456Z,1.23
2022-09-09T14:03:29.121Z,1.13
2022-09-09T14:06:52.695Z,1.30
2022-09-09T14:10:14.748Z,1.40
2022-09-09T14:13:38.455Z,1.10
2022-09-09T14:17:00.377Z,1.35
2022-09-09T14:20:22.609Z,1.20
2022-09-09T14:23:45.665Z,1.00
2022-09-09T14:27:07.420Z,1.33
2022-09-09T14:30:29.184Z,1.42
2022-09-09T14:33:51.760Z,1.17
2022-09-09T14:37:13.361Z,2.00
2022-09-09T14:40:36.524Z,1.33
2022-09-09T14:43:58.583Z,1.33
2022-09-09T14:47:20.200Z,1.10
2022-09-09T14:50:42.381Z,1.40
2022-09-09T14:54:04.506Z,1.30
2022-09-09T14:57:27.789Z,1.27
2022-09-09T15:00:49.635Z,1.75
2022-09-09T15:04:15.639Z,1.20
2022-09-09T15:07:38.122Z,1.10
2022-09-09T15:11:02.060Z,1.30
2022-09-09T15:14:27.063Z,1.50
2022-09-09T15:17:48.783Z,1.17
2022-09-09T15:21:11.318Z,1.13
2022-09-09T15:24:33.420Z,1.50
2022-09-09T15:27:56.886Z,1.20
2022-09-09T15:31:22.506Z,1.52
2022-09-09T15:34:44.334Z,1.25
2022-09-09T15:38:06.758Z,1.50
2022-09-09T15:41:29.037Z,1.60
2022-09-09T15:44:50.920Z,1.27
2022-09-09T15:48:14.152Z,1.42
2022-09-09T15:51:42.795Z,1.38
2022-09-09T15:55:06.027Z,1.55
2022-09-09T15:58:27.599Z,1.40
2022-09-09T16:01:52.194Z,1.55
2022-09-09T16:05:15.574Z,1.60
2022-09-09T16:08:38.692Z,1.40
2022-09-09T16:12:01.837Z,1.70
2022-09-09T16:15:24.176Z,1.60
2022-09-09T16:18:47.484Z,2.10
2022-09-09T16:22:10.458Z,2.10
2022-09-09T16:25:32.384Z,1.70
2022-09-09T16:28:55.150Z,1.60
2022-09-09T16:32:17.430Z,1.60
2022-09-09T16:35:39.790Z,2.00
2022-09-09T16:39:05.069Z,1.50
2022-09-09T16:42:26.858Z,5.05
2022-09-09T16:45:48.879Z,3.05
2022-09-09T16:49:13.066Z,1.85
2022-09-09T16:52:34.667Z,2.80
2022-09-09T16:55:57.814Z,1.60
2022-09-09T16:59:21.003Z,1.98
2022-09-09T17:02:43.109Z,1.63
2022-09-09T17:06:05.441Z,1.50
2022-09-09T17:09:30.102Z,2.60
2022-09-09T17:12:53.819Z,2.20
2022-09-09T17:16:18.082Z,1.50
2022-09-09T17:19:39.671Z,1.75
2022-09-09T17:23:01.410Z,2.00
2022-09-09T17:26:24.898Z,2.15
2022-09-09T17:29:48.070Z,2.13
2022-09-09T17:33:10.863Z,1.90
2022-09-09T17:36:34.717Z,1.88
2022-09-09T17:39:56.863Z,1.73
2022-09-09T17:43:18.665Z,1.60
2022-09-09T17:46:43.652Z,2.47
2022-09-09T17:50:07.575Z,1.75
2022-09-09T17:53:29.630Z,1.92
2022-09-09T17:56:51.793Z,1.50
2022-09-09T18:00:14.203Z,1.83
2022-09-09T18:03:38.203Z,1.80
2022-09-09T18:07:00.318Z,2.00
2022-09-09T18:10:22.502Z,2.00
2022-09-09T18:13:44.488Z,2.03
2022-09-09T18:17:06.770Z,2.28
2022-09-09T18:20:30.370Z,2.30
2022-09-09T18:23:52.775Z,2.10
2022-09-09T18:27:14.700Z,2.00
2022-09-09T18:30:41.150Z,2.03
2022-09-09T18:34:05.482Z,2.10
2022-09-09T18:37:28.569Z,1.65
2022-09-09T18:40:50.926Z,1.80
2022-09-09T18:44:16.162Z,1.73
2022-09-09T18:47:38.058Z,1.80
2022-09-09T18:51:03.810Z,1.77
2022-09-09T18:54:30.381Z,1.70
2022-09-09T18:57:51.930Z,1.77
2022-09-09T19:01:16.676Z,2.50
2022-09-09T19:04:38.669Z,1.58
2022-09-09T19:08:00.481Z,1.77
2022-09-09T19:11:25.274Z,1.70
2022-09-09T19:14:46.988Z,1.65
2022-09-09T19:18:09.306Z,1.80
2022-09-09T19:21:32.847Z,1.38
2022-09-09T19:24:55.712Z,1.80
2022-09-09T19:28:18.662Z,1.63
2022-09-09T19:31:41.552Z,1.60
2022-09-09T19:35:08.298Z,1.48
2022-09-09T19:38:30.534Z,1.42
2022-09-09T19:41:52.233Z,1.58
2022-09-09T19:45:15.539Z,1.70
2022-09-09T19:48:39.540Z,1.45
2022-09-09T19:52:01.146Z,1.52
2022-09-09T19:55:28.659Z,1.70
2022-09-09T19:58:50.862Z,2.08
2022-09-09T20:02:15.592Z,1.50
2022-09-09T20:05:37.543Z,1.55
2022-09-09T20:08:59.451Z,1.10
2022-09-09T20:12:21.475Z,1.58
2022-09-09T20:15:42.981Z,1.40
2022-09-09T20:19:08.460Z,1.20
2022-09-09T20:22:30.658Z,1.40
2022-09-09T20:25:52.335Z,1.45
2022-09-09T20:29:16.727Z,1.27
2022-09-09T20:32:38.378Z,1.92
2022-09-09T20:36:05.163Z,2.60
2022-09-09T20:39:27.848Z,2.10
2022-09-09T20:42:49.510Z,2.58
2022-09-09T20:46:10.941Z,3.00
2022-09-09T20:49:35.119Z,2.95
2022-09-09T20:52:58.242Z,2.95
2022-09-09T20:56:20.371Z,3.83
2022-09-09T20:59:43.358Z,3.53
2022-09-09T21:03:05.647Z,3.08
2022-09-09T21:06:27.742Z,2.80
2022-09-09T21:09:50.540Z,2.92
2022-09-09T21:13:11.903Z,2.88
2022-09-09T21:16:33.210Z,2.03
2022-09-09T21:19:57.284Z,1.75
2022-09-09T21:23:19.382Z,1.75
2022-09-09T21:26:43.955Z,1.58
2022-09-09T21:30:06.038Z,1.48
2022-09-09T21:33:29.214Z,1.17
2022-09-09T21:36:51.366Z,1.50
2022-09-09T21:40:13.441Z,1.17
2022-09-09T21:43:36.753Z,1.42
2022-09-09T21:46:58.110Z,1.20
2022-09-09T21:50:24.498Z,0.90
2022-09-09T21:53:49.830Z,1.20
2022-09-09T21:57:14.227Z,1.20
2022-09-09T22:00:37.806Z,1.33
2022-09-09T22:03:59.788Z,1.10
2022-09-09T22:07:21.651Z,1.20
2022-09-09T22:10:45.940Z,1.13
2022-09-09T22:14:08.010Z,1.10
2022-09-09T22:17:31.806Z,1.20
2022-09-09T22:20:53.664Z,1.20
2022-09-09T22:24:15.778Z,1.23
2022-09-09T22:27:37.363Z,1.10
2022-09-09T22:30:58.802Z,1.20
2022-09-09T22:34:21.953Z,1.52
2022-09-09T22:37:43.531Z,1.23
2022-09-09T22:41:05.943Z,1.30
2022-09-09T22:44:28.531Z,1.63
2022-09-09T22:47:51.356Z,1.58
2022-09-09T22:51:16.082Z,1.63
2022-09-09T22:54:38.089Z,1.45
2022-09-09T22:57:59.654Z,1.33
2022-09-09T23:01:21.890Z,1.35
2022-09-09T23:04:45.589Z,1.23
2022-09-09T23:08:08.728Z,1.40
2022-09-09T23:11:32.281Z,1.15
2022-09-09T23:14:55.245Z,1.55
2022-09-09T23:18:17.486Z,1.30
2022-09-09T23:21:40.520Z,1.23
2022-09-09T23:25:05.867Z,1.15
2022-09-09T23:28:27.918Z,1.50
2022-09-09T23:31:49.606Z,1.15
2022-09-09T23:35:11.426Z,1.40
2022-09-09T23:38:33.142Z,1.30
2022-09-09T23:41:55.893Z,1.20
2022-09-09T23:45:17.990Z,1.33
2022-09-09T23:48:40.617Z,1.38
2022-09-09T23:52:04.333Z,1.40
2022-09-09T23:55:26.238Z,1.30
2022-09-09T23:58:50.113Z,1.30
